createdAt,value
2022-10-17T00:02:14.332Z,101115.91
2022-10-17T00:04:40.900Z,101130.53
2022-10-17T00:07:07.304Z,101132.69
2022-10-17T00:09:33.768Z,101107.41
2022-10-17T00:12:00.387Z,101102.88
2022-10-17T00:14:26.796Z,101121.16
2022-10-17T00:16:53.338Z,101128.13
2022-10-17T00:19:19.850Z,101122.53
2022-10-17T00:21:46.377Z,101116.22
2022-10-17T00:24:12.897Z,101132.19
2022-10-17T00:26:40.467Z,101076.94
2022-10-17T00:29:06.886Z,101097.69
2022-10-17T00:31:33.409Z,101131.06
2022-10-17T00:33:59.733Z,101087.59
2022-10-17T00:36:26.603Z,101104.56
2022-10-17T00:38:55.946Z,101133.50
2022-10-17T00:41:25.307Z,101137.00
2022-10-17T00:43:56.197Z,101131.50
2022-10-17T00:46:25.629Z,101112.09
2022-10-17T00:48:54.615Z,101077.03
2022-10-17T00:51:27.775Z,101121.16
2022-10-17T00:53:54.217Z,101076.88
2022-10-17T00:56:21.337Z,101052.31
2022-10-17T00:58:47.984Z,101126.19
2022-10-17T01:01:14.655Z,101115.81
2022-10-17T01:03:41.191Z,101089.41
2022-10-17T01:06:07.525Z,101125.25
2022-10-17T01:08:34.176Z,101134.50
2022-10-17T01:11:17.483Z,101121.47
2022-10-17T01:13:54.396Z,101118.91
2022-10-17T01:16:43.504Z,101131.59
2022-10-17T01:19:42.473Z,101125.53
2022-10-17T01:22:33.531Z,101109.66
2022-10-17T01:25:10.657Z,101057.25
2022-10-17T01:28:00.855Z,101125.63
2022-10-17T01:30:56.101Z,101128.44
2022-10-17T01:33:41.348Z,101124.88
2022-10-17T01:36:45.156Z,101125.53
2022-10-17T01:39:38.395Z,101123.06
2022-10-17T01:42:17.858Z,101117.88
2022-10-17T01:44:54.060Z,101121.38
2022-10-17T01:47:25.482Z,101107.97
2022-10-17T01:49:54.751Z,101084.31
2022-10-17T01:52:30.046Z,101105.63
2022-10-17T01:55:19.329Z,101087.69
2022-10-17T01:57:56.052Z,101044.44
2022-10-17T02:00:26.137Z,101077.44
2022-10-17T02:02:59.226Z,101094.22
2022-10-17T02:05:31.822Z,101045.09
2022-10-17T02:07:58.246Z,101071.47
2022-10-17T02:10:54.979Z,101089.88
2022-10-17T02:13:37.347Z,101028.50
2022-10-17T02:16:06.462Z,101089.28
2022-10-17T02:18:54.547Z,101082.31
2022-10-17T02:21:33.331Z,101027.66
2022-10-17T02:24:21.500Z,101094.94
2022-10-17T02:26:59.887Z,101075.25
2022-10-17T02:29:32.770Z,101087.03
2022-10-17T02:32:04.902Z,101086.19
2022-10-17T02:34:50.681Z,101094.03
2022-10-17T02:37:21.770Z,101071.28
2022-10-17T02:39:50.347Z,101086.84
2022-10-17T02:42:17.996Z,101017.94
2022-10-17T02:44:45.785Z,101020.59
2022-10-17T02:47:43.107Z,101088.44
2022-10-17T02:50:10.308Z,101075.06
2022-10-17T02:52:52.323Z,101092.22
2022-10-17T02:55:24.092Z,101094.88
2022-10-17T02:57:54.126Z,101085.91
2022-10-17T03:00:22.479Z,101113.25
2022-10-17T03:02:51.502Z,101099.09
2022-10-17T03:05:23.981Z,101095.03
2022-10-17T03:07:50.532Z,101095.03
2022-10-17T03:10:17.900Z,101060.44
2022-10-17T03:12:44.668Z,101096.84
2022-10-17T03:15:12.072Z,101091.31
2022-10-17T03:17:38.960Z,101103.16
2022-10-17T03:20:06.841Z,101092.59
2022-10-17T03:22:33.540Z,101088.06
2022-10-17T03:24:59.882Z,101085.72
2022-10-17T03:27:26.588Z,101061.69
2022-10-17T03:29:53.133Z,101041.69
2022-10-17T03:32:19.488Z,101090.81
2022-10-17T03:34:45.795Z,101074.13
2022-10-17T03:37:12.091Z,101099.47
2022-10-17T03:39:38.445Z,101117.59
2022-10-17T03:42:04.786Z,101110.41
2022-10-17T03:44:31.108Z,101085.16
2022-10-17T03:46:57.870Z,101074.13
2022-10-17T03:49:24.253Z,101109.78
2022-10-17T03:51:50.569Z,101074.03
2022-10-17T03:54:16.925Z,101124.50
2022-10-17T03:56:43.842Z,101075.25
2022-10-17T03:59:14.124Z,101114.28
2022-10-17T04:01:40.962Z,101117.44
2022-10-17T04:04:07.460Z,101045.84
2022-10-17T04:06:33.896Z,101127.41
2022-10-17T04:09:00.413Z,101085.16
2022-10-17T04:11:26.737Z,101074.88
2022-10-17T04:13:55.098Z,101130.16
2022-10-17T04:16:22.292Z,101142.88
2022-10-17T04:18:53.290Z,101146.38
2022-10-17T04:21:19.741Z,101098.25
2022-10-17T04:23:46.114Z,101085.59
2022-10-17T04:26:12.497Z,101149.94
2022-10-17T04:31:13.074Z,101144.84
2022-10-17T04:33:39.848Z,101132.31
2022-10-17T04:36:10.192Z,101038.94
2022-10-17T04:38:36.716Z,101125.31
2022-10-17T04:41:06.686Z,101080.78
2022-10-17T04:43:35.777Z,101138.25
2022-10-17T04:46:04.751Z,101100.69
2022-10-17T04:48:31.569Z,101114.84
2022-10-17T04:51:03.548Z,101154.47
2022-10-17T04:53:35.201Z,101152.41
2022-10-17T04:56:02.078Z,101148.25
2022-10-17T04:58:29.949Z,101083.34
2022-10-17T05:00:56.569Z,101157.31
2022-10-17T05:03:22.896Z,101158.06
2022-10-17T05:05:49.227Z,101153.63
2022-10-17T05:08:15.863Z,101133.91
2022-10-17T05:10:44.420Z,101155.03
2022-10-17T05:13:11.720Z,100951.16
2022-10-17T05:15:38.186Z,101115.81
2022-10-17T05:18:06.079Z,101155.50
2022-10-17T05:20:33.258Z,101156.88
2022-10-17T05:23:00.124Z,101163.56
2022-10-17T05:25:26.430Z,101162.91
2022-10-17T05:27:53.793Z,101168.47
2022-10-17T05:30:20.218Z,101142.91
2022-10-17T05:32:46.582Z,101172.88
2022-10-17T05:35:13.046Z,101158.16
2022-10-17T05:37:39.396Z,101164.13
2022-10-17T05:40:06.201Z,101124.78
2022-10-17T05:42:33.141Z,101193.09
2022-10-17T05:44:59.673Z,101196.38
2022-10-17T05:47:26.040Z,101202.50
2022-10-17T05:49:52.757Z,101192.50
2022-10-17T05:52:19.279Z,101150.91
2022-10-17T05:54:45.839Z,101168.34
2022-10-17T05:57:12.148Z,101187.22
2022-10-17T05:59:38.509Z,101170.38
2022-10-17T06:02:04.915Z,101176.56
2022-10-17T06:04:31.356Z,101203.94
2022-10-17T06:06:57.789Z,101217.34
2022-10-17T06:09:24.435Z,101158.81
2022-10-17T06:11:50.840Z,101200.81
2022-10-17T06:14:17.393Z,101232.13
2022-10-17T06:16:43.766Z,101259.53
2022-10-17T06:19:11.460Z,101266.50
2022-10-17T06:21:38.806Z,101192.47
2022-10-17T06:24:05.419Z,101249.41
2022-10-17T06:26:31.839Z,101285.38
2022-10-17T06:28:58.270Z,101214.44
2022-10-17T06:31:24.701Z,101219.72
2022-10-17T06:33:51.218Z,101268.66
2022-10-17T06:36:17.711Z,101228.84
2022-10-17T06:38:44.032Z,101273.78
2022-10-17T06:41:14.384Z,101248.19
2022-10-17T06:43:43.390Z,101269.16
2022-10-17T06:46:09.711Z,101266.31
2022-10-17T06:48:36.161Z,101271.50
2022-10-17T06:51:04.559Z,101274.72
2022-10-17T06:53:32.902Z,101261.59
2022-10-17T06:56:03.029Z,101258.31
2022-10-17T06:58:34.351Z,101302.28
2022-10-17T07:03:41.154Z,101146.00
2022-10-17T07:06:10.740Z,101322.66
2022-10-17T07:08:37.492Z,101321.97
2022-10-17T07:11:15.740Z,101306.47
2022-10-17T07:13:42.794Z,101273.25
2022-10-17T07:16:09.810Z,101306.94
2022-10-17T07:18:36.270Z,101289.00
2022-10-17T07:21:03.909Z,101331.06
2022-10-17T07:23:30.605Z,101300.84
2022-10-17T07:26:02.262Z,101347.88
2022-10-17T07:28:29.115Z,101343.09
2022-10-17T07:30:55.488Z,101344.31
2022-10-17T07:33:21.887Z,101290.81
2022-10-17T07:35:48.349Z,101307.91
2022-10-17T07:38:14.662Z,101283.34
2022-10-17T07:40:40.991Z,101349.59
2022-10-17T07:43:07.339Z,101363.63
2022-10-17T07:45:33.642Z,101348.47
2022-10-17T07:48:00.011Z,101348.25
2022-10-17T07:50:26.384Z,101344.97
2022-10-17T07:52:52.741Z,101325.03
2022-10-17T07:55:19.095Z,101286.41
2022-10-17T07:57:45.462Z,101361.28
2022-10-17T08:00:12.094Z,101343.50
2022-10-17T08:02:38.501Z,101363.41
2022-10-17T08:05:05.226Z,101372.75
2022-10-17T08:07:31.593Z,101380.38
2022-10-17T08:09:58.057Z,101362.75
2022-10-17T08:12:25.859Z,101339.25
2022-10-17T08:14:52.201Z,101382.72
2022-10-17T08:17:18.511Z,101319.50
2022-10-17T08:19:44.830Z,101413.50
2022-10-17T08:22:11.342Z,101384.63
2022-10-17T08:24:37.876Z,101420.88
2022-10-17T08:27:11.099Z,101389.03
2022-10-17T08:29:38.451Z,101406.50
2022-10-17T08:32:07.666Z,101430.88
2022-10-17T08:34:35.349Z,101388.47
2022-10-17T08:37:01.725Z,101448.72
2022-10-17T08:39:28.175Z,101400.41
2022-10-17T08:41:54.482Z,101436.78
2022-10-17T08:44:46.142Z,101436.69
2022-10-17T08:47:29.095Z,101452.41
2022-10-17T08:50:03.240Z,101465.09
2022-10-17T08:52:39.111Z,101388.88
2022-10-17T08:57:49.503Z,101465.59
2022-10-17T09:00:21.492Z,101467.41
2022-10-17T09:03:06.177Z,101455.00
2022-10-17T09:05:49.235Z,101461.66
2022-10-17T09:08:35.777Z,101458.00
2022-10-17T09:11:25.289Z,101403.78
2022-10-17T09:14:20.710Z,101436.22
2022-10-17T09:17:04.679Z,101439.50
2022-10-17T09:19:36.623Z,101458.38
2022-10-17T09:22:09.461Z,101485.16
2022-10-17T09:24:38.880Z,101486.06
2022-10-17T09:27:11.523Z,101472.88
2022-10-17T09:29:42.898Z,101483.63
2022-10-17T09:32:19.684Z,101466.69
2022-10-17T09:34:46.104Z,101499.72
2022-10-17T09:37:17.143Z,101441.34
2022-10-17T09:39:44.606Z,101497.44
2022-10-17T09:42:18.598Z,101499.84
2022-10-17T09:44:56.084Z,101477.31
2022-10-17T09:47:41.281Z,101507.13
2022-10-17T09:50:28.561Z,101508.59
2022-10-17T09:52:59.274Z,101495.03
2022-10-17T09:55:36.727Z,101471.84
2022-10-17T09:58:05.559Z,101524.31
2022-10-17T10:00:38.593Z,101489.03
2022-10-17T10:03:22.786Z,101519.41
2022-10-17T10:06:15.358Z,101532.50
2022-10-17T10:09:04.900Z,101519.63
2022-10-17T10:11:54.596Z,101544.84
2022-10-17T10:14:36.124Z,101541.97
2022-10-17T10:17:05.147Z,101543.06
2022-10-17T10:19:38.693Z,101543.47
2022-10-17T10:22:17.108Z,101538.41
2022-10-17T10:24:43.427Z,101503.25
2022-10-17T10:27:15.279Z,101513.72
2022-10-17T10:29:48.144Z,101538.19
2022-10-17T10:35:19.323Z,101557.69
2022-10-17T10:37:51.906Z,101535.38
2022-10-17T10:40:20.274Z,101573.72
2022-10-17T10:42:50.402Z,101574.19
2022-10-17T10:48:51.816Z,101577.31
2022-10-17T10:51:24.459Z,101592.59
2022-10-17T10:54:01.455Z,101590.66
2022-10-17T10:56:48.796Z,101604.94
2022-10-17T10:59:25.248Z,101535.56
2022-10-17T11:01:57.663Z,101590.78
2022-10-17T11:04:36.136Z,101514.41
2022-10-17T11:07:27.287Z,101551.97
2022-10-17T11:09:56.597Z,101546.50
2022-10-17T11:12:28.954Z,101546.03
2022-10-17T11:15:22.294Z,101578.00
2022-10-17T11:17:57.274Z,101548.09
2022-10-17T11:20:32.828Z,101580.03
2022-10-17T11:23:10.990Z,101576.41
2022-10-17T11:25:39.505Z,101585.63
2022-10-17T11:28:17.729Z,101592.88
2022-10-17T11:30:52.374Z,101602.69
2022-10-17T11:33:27.780Z,101593.97
2022-10-17T11:35:59.532Z,101603.16
2022-10-17T11:38:46.717Z,101613.22
2022-10-17T11:41:24.194Z,101606.69
2022-10-17T11:44:03.940Z,101607.06
2022-10-17T11:46:34.114Z,101607.91
2022-10-17T11:49:20.088Z,101548.56
2022-10-17T11:52:01.125Z,101621.47
2022-10-17T11:55:10.883Z,101612.91
2022-10-17T11:57:48.792Z,101598.72
2022-10-17T12:00:31.292Z,101618.72
2022-10-17T12:02:59.511Z,101618.91
2022-10-17T12:05:37.377Z,101627.28
2022-10-17T12:08:08.034Z,101633.13
2022-10-17T12:10:46.469Z,101617.25
2022-10-17T12:13:52.632Z,101632.88
2022-10-17T12:16:21.793Z,101631.41
2022-10-17T12:18:52.824Z,101632.38
2022-10-17T12:21:19.470Z,101637.34
2022-10-17T12:23:55.770Z,101633.34
2022-10-17T12:26:40.350Z,101617.13
2022-10-17T12:29:29.852Z,101639.66
2022-10-17T12:32:11.792Z,101545.56
2022-10-17T12:34:38.897Z,101644.13
2022-10-17T12:37:05.414Z,101638.63
2022-10-17T12:39:34.623Z,101649.50
2022-10-17T12:42:00.973Z,101645.63
2022-10-17T12:44:28.763Z,101651.31
2022-10-17T12:47:29.201Z,101525.72
2022-10-17T12:49:56.772Z,101657.53
2022-10-17T12:52:32.238Z,101667.56
2022-10-17T12:55:13.944Z,101676.03
2022-10-17T12:58:02.308Z,101596.19
2022-10-17T13:00:59.499Z,101630.91
2022-10-17T13:03:33.488Z,101654.03
2022-10-17T13:06:06.243Z,101643.97
2022-10-17T13:08:43.173Z,101673.69
2022-10-17T13:11:16.014Z,101636.16
2022-10-17T13:13:56.142Z,101601.94
2022-10-17T13:16:51.583Z,101667.41
2022-10-17T13:19:23.776Z,101671.75
2022-10-17T13:22:06.340Z,101633.19
2022-10-17T13:24:44.194Z,101695.00
2022-10-17T13:27:30.203Z,101695.72
2022-10-17T13:29:58.609Z,101706.66
2022-10-17T13:32:27.724Z,101708.84
2022-10-17T13:35:13.720Z,101708.00
2022-10-17T13:37:54.221Z,101619.97
2022-10-17T13:40:49.686Z,101712.69
2022-10-17T13:43:20.538Z,101717.19
2022-10-17T13:45:53.909Z,101688.16
2022-10-17T13:48:30.882Z,101722.78
2022-10-17T13:51:03.416Z,101720.84
2022-10-17T13:53:41.566Z,101715.28
2022-10-17T13:56:29.564Z,101636.97
2022-10-17T13:59:07.984Z,101724.63
2022-10-17T14:01:34.723Z,101644.41
2022-10-17T14:04:09.664Z,101683.88
2022-10-17T14:06:49.573Z,101721.88
2022-10-17T14:09:25.310Z,101729.38
2022-10-17T14:12:02.971Z,101719.09
2022-10-17T14:14:30.434Z,101683.41
2022-10-17T14:17:14.983Z,101726.63
2022-10-17T14:19:41.336Z,101728.34
2022-10-17T14:22:23.068Z,101724.81
2022-10-17T14:24:52.029Z,101693.00
2022-10-17T14:27:36.658Z,101618.13
2022-10-17T14:30:09.711Z,101721.59
2022-10-17T14:32:37.697Z,101762.09
2022-10-17T14:35:30.213Z,101766.78
2022-10-17T14:37:57.878Z,101760.84
2022-10-17T14:40:27.427Z,101762.78
2022-10-17T14:42:59.606Z,101724.84
2022-10-17T14:45:32.997Z,101793.91
2022-10-17T14:48:06.435Z,101778.53
2022-10-17T14:50:33.473Z,101733.06
2022-10-17T14:53:07.153Z,101769.91
2022-10-17T14:55:55.042Z,101624.31
2022-10-17T14:58:32.915Z,101778.47
2022-10-17T15:01:01.249Z,101683.50
2022-10-17T15:03:27.938Z,101799.06
2022-10-17T15:05:55.170Z,101784.25
2022-10-17T15:08:23.941Z,101806.88
2022-10-17T15:10:51.308Z,101798.44
2022-10-17T15:13:28.845Z,101806.25
2022-10-17T15:15:58.836Z,101709.34
2022-10-17T15:18:25.116Z,101759.19
2022-10-17T15:20:59.598Z,101813.56
2022-10-17T15:23:31.548Z,101767.53
2022-10-17T15:26:06.513Z,101739.78
2022-10-17T15:28:35.294Z,101771.16
2022-10-17T15:31:01.640Z,101796.91
2022-10-17T15:33:35.766Z,101725.63
2022-10-17T15:36:05.472Z,101779.97
2022-10-17T15:38:31.786Z,101819.25
2022-10-17T15:41:00.498Z,101818.91
2022-10-17T15:43:29.749Z,101851.69
2022-10-17T15:45:56.362Z,101861.59
2022-10-17T15:48:31.554Z,101810.59
2022-10-17T15:50:57.855Z,101827.59
2022-10-17T15:53:27.020Z,101869.75
2022-10-17T15:55:56.465Z,101866.66
2022-10-17T15:58:22.873Z,101868.88
2022-10-17T16:00:51.176Z,101882.47
2022-10-17T16:03:17.717Z,101884.59
2022-10-17T16:05:44.105Z,101890.41
2022-10-17T16:08:13.089Z,101887.31
2022-10-17T16:10:40.547Z,101884.31
2022-10-17T16:13:12.213Z,101835.88
2022-10-17T16:15:41.987Z,101856.66
2022-10-17T16:18:10.068Z,101878.34
2022-10-17T16:20:38.213Z,101896.66
2022-10-17T16:23:07.379Z,101915.53
2022-10-17T16:25:34.390Z,101889.19
2022-10-17T16:28:01.981Z,101816.63
2022-10-17T16:30:30.605Z,101896.97
2022-10-17T16:33:02.435Z,101888.91
2022-10-17T16:35:53.392Z,101859.34
2022-10-17T16:38:19.820Z,101414.47
2022-10-17T16:40:46.133Z,101876.41
2022-10-17T16:43:13.764Z,101828.47
2022-10-17T16:45:47.607Z,101813.50
2022-10-17T16:48:14.706Z,101819.41
2022-10-17T16:50:46.510Z,101871.97
2022-10-17T16:53:12.925Z,101876.69
2022-10-17T16:55:39.782Z,101783.44
2022-10-17T16:58:06.429Z,101888.66
2022-10-17T17:00:33.051Z,101762.78
2022-10-17T17:02:59.733Z,101595.50
2022-10-17T17:05:26.187Z,101883.06
2022-10-17T17:07:52.873Z,101753.19
2022-10-17T17:10:22.096Z,101884.28
2022-10-17T17:12:48.770Z,101881.81
2022-10-17T17:15:15.277Z,101746.28
2022-10-17T17:17:50.482Z,101877.53
2022-10-17T17:20:19.897Z,101876.88
2022-10-17T17:22:46.400Z,101884.81
2022-10-17T17:25:12.947Z,101878.00
2022-10-17T17:27:39.337Z,101686.22
2022-10-17T17:30:06.256Z,101828.50
2022-10-17T17:32:38.099Z,101867.09
2022-10-17T17:35:07.073Z,101868.81
2022-10-17T17:37:33.636Z,101876.09
2022-10-17T17:40:03.006Z,101851.97
2022-10-17T17:42:29.384Z,101881.69
2022-10-17T17:44:58.507Z,101853.69
2022-10-17T17:47:45.458Z,101842.00
2022-10-17T17:50:11.945Z,101878.69
2022-10-17T17:52:41.862Z,101881.44
2022-10-17T17:55:09.055Z,101881.50
2022-10-17T17:57:40.208Z,101769.84
2022-10-17T18:00:07.539Z,101881.78
2022-10-17T18:02:37.687Z,101882.00
2022-10-17T18:05:06.881Z,101843.16
2022-10-17T18:07:37.397Z,101891.03
2022-10-17T18:10:05.423Z,101866.31
2022-10-17T18:12:32.960Z,101840.53
2022-10-17T18:14:59.457Z,101873.59
2022-10-17T18:17:26.041Z,101823.63
2022-10-17T18:19:52.783Z,101863.94
2022-10-17T18:22:19.258Z,101887.13
2022-10-17T18:24:45.676Z,101881.06
2022-10-17T18:27:15.798Z,101873.75
2022-10-17T18:29:45.658Z,101851.22
2022-10-17T18:32:15.145Z,101828.78
2022-10-17T18:34:44.726Z,101849.25
2022-10-17T18:37:13.701Z,101886.81
2022-10-17T18:39:40.589Z,101885.13
2022-10-17T18:42:07.133Z,101882.91
2022-10-17T18:44:33.510Z,101893.50
2022-10-17T18:47:03.767Z,101862.09
2022-10-17T18:49:31.228Z,101880.97
2022-10-17T18:51:57.893Z,101906.00
2022-10-17T18:54:24.321Z,101880.28
2022-10-17T18:56:55.172Z,101905.31
2022-10-17T18:59:22.405Z,101848.09
2022-10-17T19:01:52.255Z,101904.88
2022-10-17T19:04:19.072Z,101908.50
2022-10-17T19:06:45.453Z,101869.78
2022-10-17T19:09:16.197Z,101917.53
2022-10-17T19:11:45.781Z,101887.06
2022-10-17T19:14:15.764Z,101876.38
2022-10-17T19:16:45.426Z,101920.63
2022-10-17T19:19:23.361Z,101926.00
2022-10-17T19:21:51.013Z,101923.28
2022-10-17T19:24:20.500Z,101940.09
2022-10-17T19:26:51.014Z,101938.47
2022-10-17T19:29:18.134Z,101949.16
2022-10-17T19:31:45.542Z,101944.97
2022-10-17T19:34:13.974Z,101945.28
2022-10-17T19:36:41.247Z,101915.50
2022-10-17T19:39:18.711Z,101917.97
2022-10-17T19:41:57.605Z,101900.31
2022-10-17T19:44:24.066Z,101938.63
2022-10-17T19:46:50.675Z,101929.47
2022-10-17T19:49:17.398Z,101946.81
2022-10-17T19:51:44.432Z,101946.81
2022-10-17T19:54:11.305Z,101864.16
2022-10-17T19:56:38.163Z,101896.63
2022-10-17T19:59:08.554Z,101871.69
2022-10-17T20:01:41.560Z,101949.72
2022-10-17T20:04:10.657Z,101885.41
2022-10-17T20:06:37.593Z,101933.44
2022-10-17T20:09:05.218Z,101935.56
2022-10-17T20:11:35.265Z,101906.84
2022-10-17T20:14:02.155Z,101941.09
2022-10-17T20:16:32.785Z,101891.63
2022-10-17T20:19:09.442Z,101952.38
2022-10-17T20:21:39.241Z,101897.69
2022-10-17T20:24:11.996Z,101939.53
2022-10-17T20:26:43.976Z,101923.63
2022-10-17T20:29:20.028Z,101907.19
2022-10-17T20:31:47.895Z,101901.56
2022-10-17T20:34:18.434Z,101816.66
2022-10-17T20:36:45.595Z,101953.94
2022-10-17T20:39:13.798Z,101959.50
2022-10-17T20:41:40.736Z,101935.19
2022-10-17T20:44:07.749Z,101900.81
2022-10-17T20:46:39.823Z,101929.13
2022-10-17T20:49:15.003Z,101950.09
2022-10-17T20:51:44.856Z,101959.88
2022-10-17T20:54:21.922Z,101873.47
2022-10-17T20:56:50.285Z,101955.09
2022-10-17T20:59:18.099Z,101859.09
2022-10-17T21:01:45.502Z,101847.56
2022-10-17T21:04:45.428Z,101941.00
2022-10-17T21:06:59.389Z,101952.44
2022-10-17T21:09:26.031Z,101915.50
2022-10-17T21:11:55.097Z,101924.22
2022-10-17T21:14:23.022Z,101940.78
2022-10-17T21:16:49.444Z,101941.09
2022-10-17T21:19:16.488Z,101945.63
2022-10-17T21:21:45.693Z,101947.38
2022-10-17T21:24:18.199Z,101946.00
2022-10-17T21:26:46.217Z,101958.97
2022-10-17T21:29:13.737Z,101950.06
2022-10-17T21:31:43.380Z,101956.41
2022-10-17T21:34:12.791Z,101959.03
2022-10-17T21:36:39.186Z,101958.38
2022-10-17T21:41:35.609Z,101954.06
2022-10-17T21:44:07.754Z,101950.50
2022-10-17T21:46:34.195Z,101959.44
2022-10-17T21:49:00.816Z,101962.19
2022-10-17T21:51:30.709Z,101877.13
2022-10-17T21:53:57.685Z,101944.59
2022-10-17T21:56:28.664Z,101895.75
2022-10-17T21:58:58.369Z,101951.28
2022-10-17T22:01:34.049Z,101954.91
2022-10-17T22:04:06.753Z,101929.53
2022-10-17T22:06:40.098Z,101964.66
2022-10-17T22:09:12.224Z,101975.94
2022-10-17T22:11:39.244Z,101804.19
2022-10-17T22:14:15.172Z,101975.88
2022-10-17T22:16:47.324Z,101930.69
2022-10-17T22:19:19.438Z,101972.28
2022-10-17T22:21:46.368Z,101941.56
2022-10-17T22:24:16.195Z,101976.72
2022-10-17T22:26:45.350Z,101977.47
2022-10-17T22:29:12.402Z,101971.34
2022-10-17T22:31:41.896Z,101901.22
2022-10-17T22:34:13.296Z,101986.44
2022-10-17T22:36:39.730Z,101940.78
2022-10-17T22:39:10.580Z,101728.66
2022-10-17T22:41:36.914Z,101906.25
2022-10-17T22:44:03.739Z,101816.47
2022-10-17T22:46:30.446Z,101825.72
2022-10-17T22:48:59.549Z,101862.84
2022-10-17T22:51:26.060Z,101811.03
2022-10-17T22:53:52.609Z,101971.72
2022-10-17T22:56:20.901Z,101978.88
2022-10-17T22:58:52.036Z,101973.53
2022-10-17T23:01:28.914Z,101878.56
2022-10-17T23:03:55.330Z,101974.63
2022-10-17T23:06:24.429Z,101927.78
2022-10-17T23:08:54.205Z,101925.25
2022-10-17T23:11:26.822Z,101924.16
2022-10-17T23:13:53.162Z,101974.69
2022-10-17T23:16:22.061Z,101975.84
2022-10-17T23:37:50.744Z,101968.44
2022-10-17T23:40:19.536Z,101942.31
2022-10-17T23:42:45.897Z,101989.13
2022-10-17T23:45:12.637Z,101996.13
2022-10-17T23:47:39.371Z,101930.97
2022-10-17T23:50:06.449Z,101991.69
2022-10-17T23:52:32.781Z,101991.78
2022-10-17T23:55:02.025Z,101993.41
2022-10-17T23:57:29.188Z,102002.97
2022-10-17T23:59:55.789Z,101988.06
